createdAt,value
2023-03-10T00:00:18.818Z,9.90
2023-03-10T00:02:49.472Z,10.23
2023-03-10T00:05:20.251Z,10.00
2023-03-10T00:07:47.754Z,10.90
2023-03-10T00:10:15.051Z,11.23
2023-03-10T00:12:41.738Z,8.57
2023-03-10T00:15:09.965Z,11.15
2023-03-10T00:17:36.995Z,9.15
2023-03-10T00:20:07.924Z,10.70
2023-03-10T00:22:35.335Z,12.05
2023-03-10T00:25:01.818Z,8.17
2023-03-10T00:27:29.166Z,10.88
2023-03-10T00:29:55.894Z,9.63
2023-03-10T00:32:22.423Z,9.57
2023-03-10T00:34:49.126Z,9.95
2023-03-10T00:37:16.323Z,9.57
2023-03-10T00:39:42.891Z,9.50
2023-03-10T00:42:09.394Z,9.15
2023-03-10T00:44:36.000Z,11.38
2023-03-10T00:47:02.847Z,10.80
2023-03-10T00:49:29.334Z,11.80
2023-03-10T00:51:56.342Z,10.07
2023-03-10T00:54:22.854Z,10.27
2023-03-10T00:56:49.409Z,10.77
2023-03-10T00:59:15.954Z,8.32
2023-03-10T01:01:42.982Z,10.50
2023-03-10T01:04:14.837Z,9.50
2023-03-10T01:06:42.344Z,9.85
2023-03-10T01:09:08.866Z,10.25
2023-03-10T01:11:35.626Z,10.77
2023-03-10T01:14:04.741Z,10.80
2023-03-10T01:16:31.314Z,13.70
2023-03-10T01:18:58.877Z,10.85
2023-03-10T01:21:30.158Z,10.00
2023-03-10T01:23:56.891Z,10.13
2023-03-10T01:26:23.422Z,9.60
2023-03-10T01:28:50.159Z,10.15
2023-03-10T01:31:17.542Z,10.40
2023-03-10T01:33:45.515Z,10.60
2023-03-10T01:36:15.920Z,10.63
2023-03-10T01:38:46.143Z,10.27
2023-03-10T01:41:14.797Z,10.93
2023-03-10T01:43:43.785Z,8.88
2023-03-10T01:46:34.315Z,10.20
2023-03-10T01:49:27.244Z,9.63
2023-03-10T01:52:00.073Z,10.10
2023-03-10T01:54:33.535Z,8.77
2023-03-10T01:57:00.383Z,9.50
2023-03-10T01:59:28.068Z,9.18
2023-03-10T02:01:57.685Z,9.50
2023-03-10T02:04:38.343Z,9.70
2023-03-10T02:07:06.395Z,9.45
2023-03-10T02:09:36.458Z,8.50
2023-03-10T02:12:05.187Z,8.88
2023-03-10T02:14:33.074Z,8.65
2023-03-10T02:16:59.786Z,9.37
2023-03-10T02:19:49.769Z,8.88
2023-03-10T02:22:17.185Z,9.18
2023-03-10T02:24:52.414Z,8.73
2023-03-10T02:27:28.790Z,9.80
2023-03-10T02:30:07.722Z,9.93
2023-03-10T02:32:40.986Z,8.68
2023-03-10T02:35:08.551Z,9.30
2023-03-10T02:37:41.803Z,9.63
2023-03-10T02:40:38.036Z,8.88
2023-03-10T02:43:18.382Z,9.13
2023-03-10T02:45:48.056Z,10.65
2023-03-10T02:48:22.483Z,10.27
2023-03-10T02:50:50.912Z,9.05
2023-03-10T02:53:23.324Z,9.73
2023-03-10T02:55:49.921Z,10.17
2023-03-10T02:58:16.768Z,10.73
2023-03-10T03:00:45.512Z,10.18
2023-03-10T03:03:15.861Z,9.98
2023-03-10T03:05:42.552Z,10.00
2023-03-10T03:08:09.589Z,10.43
2023-03-10T03:10:37.240Z,10.55
2023-03-10T03:13:06.198Z,11.45
2023-03-10T03:15:33.224Z,13.43
2023-03-10T03:18:00.282Z,13.48
2023-03-10T03:20:30.316Z,12.63
2023-03-10T03:22:57.662Z,13.50
2023-03-10T03:25:26.572Z,11.50
2023-03-10T03:27:53.992Z,13.63
2023-03-10T03:30:24.066Z,10.70
2023-03-10T03:32:52.385Z,11.70
2023-03-10T03:35:25.830Z,11.70
2023-03-10T03:37:53.356Z,10.43
2023-03-10T03:40:21.157Z,13.35
2023-03-10T03:42:50.673Z,14.45
2023-03-10T03:45:20.008Z,12.43
2023-03-10T03:47:47.641Z,12.60
2023-03-10T03:50:16.233Z,13.38
2023-03-10T03:52:43.844Z,12.35
2023-03-10T03:55:13.512Z,14.30
2023-03-10T03:57:40.484Z,13.97
2023-03-10T04:00:09.585Z,12.65
2023-03-10T04:02:39.702Z,14.57
2023-03-10T04:05:08.812Z,14.73
2023-03-10T04:07:39.132Z,13.95
2023-03-10T04:10:09.940Z,12.93
2023-03-10T04:12:36.503Z,14.68
2023-03-10T04:15:03.765Z,16.40
2023-03-10T04:17:30.375Z,14.70
2023-03-10T04:20:06.549Z,14.25
2023-03-10T04:22:34.975Z,15.50
2023-03-10T04:25:01.807Z,15.57
2023-03-10T04:27:28.507Z,14.27
2023-03-10T04:29:55.127Z,16.42
2023-03-10T04:32:22.036Z,14.63
2023-03-10T04:34:48.575Z,15.67
2023-03-10T04:37:15.525Z,13.88
2023-03-10T04:39:42.127Z,14.18
2023-03-10T04:42:08.836Z,13.73
2023-03-10T04:44:35.450Z,15.77
2023-03-10T04:47:04.813Z,14.00
2023-03-10T04:49:32.096Z,12.25
2023-03-10T04:52:00.025Z,12.50
2023-03-10T04:54:27.531Z,12.75
2023-03-10T04:56:54.168Z,10.63
2023-03-10T04:59:21.562Z,10.53
2023-03-10T05:01:48.364Z,11.15
2023-03-10T05:04:15.002Z,11.93
2023-03-10T05:06:41.803Z,10.32
2023-03-10T05:09:20.322Z,10.38
2023-03-10T05:11:47.687Z,9.93
2023-03-10T05:14:15.600Z,9.73
2023-03-10T05:16:42.453Z,9.02
2023-03-10T05:19:09.374Z,9.00
2023-03-10T05:21:36.543Z,11.30
2023-03-10T05:24:04.084Z,10.80
2023-03-10T05:26:32.690Z,10.07
2023-03-10T05:29:01.100Z,9.73
2023-03-10T05:31:39.046Z,7.82
2023-03-10T05:34:11.208Z,8.13
2023-03-10T05:36:38.116Z,9.93
2023-03-10T05:39:07.265Z,7.95
2023-03-10T05:41:38.480Z,7.78
2023-03-10T05:44:05.854Z,6.35
2023-03-10T05:46:34.701Z,7.00
2023-03-10T05:49:02.525Z,8.07
2023-03-10T05:51:29.521Z,6.35
2023-03-10T05:53:57.639Z,6.47
2023-03-10T05:56:27.528Z,6.47
2023-03-10T05:58:58.497Z,6.38
2023-03-10T06:01:30.419Z,7.30
2023-03-10T06:03:57.141Z,7.07
2023-03-10T06:06:23.843Z,6.47
2023-03-10T06:08:50.361Z,6.13
2023-03-10T06:11:16.940Z,7.00
2023-03-10T06:13:43.420Z,6.17
2023-03-10T06:16:11.384Z,6.32
2023-03-10T06:18:38.147Z,6.13
2023-03-10T06:21:06.681Z,6.38
2023-03-10T06:23:33.241Z,7.40
2023-03-10T06:26:06.807Z,4.40
2023-03-10T06:28:36.628Z,5.57
2023-03-10T06:31:15.461Z,7.00
2023-03-10T06:33:41.979Z,6.18
2023-03-10T06:36:11.239Z,6.88
2023-03-10T06:38:38.054Z,7.33
2023-03-10T06:41:05.549Z,6.40
2023-03-10T06:43:33.200Z,7.20
2023-03-10T06:46:02.267Z,6.07
2023-03-10T06:48:28.838Z,6.30
2023-03-10T06:50:55.416Z,7.57
2023-03-10T06:53:21.996Z,6.28
2023-03-10T06:56:01.692Z,7.60
2023-03-10T06:58:29.346Z,5.72
2023-03-10T07:00:56.015Z,7.95
2023-03-10T07:03:22.703Z,6.53
2023-03-10T07:05:49.231Z,7.00
2023-03-10T07:08:15.755Z,7.05
2023-03-10T07:10:42.330Z,6.35
2023-03-10T07:13:10.691Z,7.45
2023-03-10T07:15:39.845Z,6.40
2023-03-10T07:18:06.586Z,7.20
2023-03-10T07:20:33.155Z,7.90
2023-03-10T07:22:59.634Z,6.95
2023-03-10T07:25:26.319Z,7.57
2023-03-10T07:27:52.923Z,8.40
2023-03-10T07:30:19.562Z,8.68
2023-03-10T07:32:46.143Z,8.20
2023-03-10T07:35:12.708Z,7.90
2023-03-10T07:37:40.302Z,7.97
2023-03-10T07:40:09.165Z,7.73
2023-03-10T07:42:35.642Z,8.55
2023-03-10T07:45:04.281Z,8.82
2023-03-10T07:47:31.082Z,9.30
2023-03-10T07:49:57.655Z,9.45
2023-03-10T07:52:24.188Z,9.63
2023-03-10T07:54:50.827Z,11.68
2023-03-10T07:57:17.319Z,9.10
2023-03-10T07:59:43.831Z,11.90
2023-03-10T08:02:12.906Z,10.82
2023-03-10T08:04:40.618Z,11.10
2023-03-10T08:07:08.060Z,11.85
2023-03-10T08:09:34.858Z,10.95
2023-03-10T08:12:01.972Z,10.90
2023-03-10T08:14:29.984Z,11.23
2023-03-10T08:16:56.762Z,12.13
2023-03-10T08:19:24.630Z,12.02
2023-03-10T08:21:51.994Z,11.50
2023-03-10T08:24:18.627Z,12.30
2023-03-10T08:26:45.451Z,12.10
2023-03-10T08:29:12.486Z,10.77
2023-03-10T08:31:39.080Z,12.77
2023-03-10T08:34:05.844Z,11.10
2023-03-10T08:36:32.484Z,10.02
2023-03-10T08:39:05.453Z,11.23
2023-03-10T08:41:38.087Z,14.63
2023-03-10T08:44:05.490Z,10.02
2023-03-10T08:46:33.553Z,12.10
2023-03-10T08:49:01.198Z,17.42
2023-03-10T08:51:28.392Z,12.20
2023-03-10T08:53:55.121Z,11.70
2023-03-10T08:56:23.058Z,10.75
2023-03-10T08:58:49.645Z,10.90
2023-03-10T09:01:17.214Z,10.30
2023-03-10T09:03:45.042Z,10.75
2023-03-10T09:06:12.657Z,12.70
2023-03-10T09:08:41.121Z,11.88
2023-03-10T09:11:08.656Z,11.95
2023-03-10T09:13:35.485Z,11.15
2023-03-10T09:16:02.118Z,11.18
2023-03-10T09:18:28.582Z,10.13
2023-03-10T09:20:55.090Z,11.20
2023-03-10T09:23:21.695Z,10.88
2023-03-10T09:25:48.239Z,11.20
2023-03-10T09:28:17.415Z,13.82
2023-03-10T09:30:45.563Z,10.40
2023-03-10T09:33:16.831Z,10.73
2023-03-10T09:35:52.459Z,10.65
2023-03-10T09:38:19.533Z,10.40
2023-03-10T09:40:50.423Z,8.57
2023-03-10T09:43:20.893Z,7.40
2023-03-10T09:46:00.734Z,9.15
2023-03-10T09:48:53.014Z,8.35
2023-03-10T09:51:26.110Z,8.15
2023-03-10T09:53:58.314Z,7.28
2023-03-10T09:56:36.353Z,7.73
2023-03-10T09:59:11.145Z,9.00
2023-03-10T10:01:40.105Z,9.23
2023-03-10T10:04:11.616Z,8.82
2023-03-10T10:06:43.437Z,7.32
2023-03-10T10:09:15.124Z,8.27
2023-03-10T10:11:41.632Z,8.05
2023-03-10T10:14:27.704Z,5.55
2023-03-10T10:17:07.788Z,8.02
2023-03-10T10:19:37.180Z,6.68
2023-03-10T10:22:15.111Z,7.30
2023-03-10T10:24:55.096Z,7.05
2023-03-10T10:27:23.246Z,7.25
2023-03-10T10:29:50.987Z,7.25
2023-03-10T10:32:18.259Z,7.70
2023-03-10T10:34:46.860Z,6.53
2023-03-10T10:37:38.770Z,9.27
2023-03-10T10:40:23.861Z,6.82
2023-03-10T10:42:55.283Z,7.63
2023-03-10T10:45:33.027Z,7.22
2023-03-10T10:47:59.661Z,7.83
2023-03-10T10:50:27.907Z,6.60
2023-03-10T10:53:16.496Z,5.60
2023-03-10T10:55:44.764Z,6.20
2023-03-10T10:58:28.439Z,6.75
2023-03-10T11:00:58.656Z,5.87
2023-03-10T11:03:35.012Z,6.10
2023-03-10T11:06:12.002Z,5.45
2023-03-10T11:08:40.643Z,6.07
2023-03-10T11:11:18.665Z,8.02
2023-03-10T11:13:58.004Z,8.53
2023-03-10T11:16:36.337Z,8.85
2023-03-10T11:19:17.866Z,10.25
2023-03-10T11:21:49.353Z,12.00
2023-03-10T11:24:35.518Z,9.32
2023-03-10T11:27:10.862Z,10.03
2023-03-10T11:30:05.431Z,9.93
2023-03-10T11:32:53.658Z,11.02
2023-03-10T11:35:31.645Z,12.10
2023-03-10T11:38:28.477Z,10.57
2023-03-10T11:40:58.663Z,10.57
2023-03-10T11:43:47.384Z,10.57
2023-03-10T11:46:25.285Z,11.25
2023-03-10T11:49:12.334Z,9.63
2023-03-10T11:51:55.923Z,9.13
2023-03-10T11:54:30.048Z,9.47
2023-03-10T11:56:58.124Z,8.63
2023-03-10T11:59:30.571Z,7.05
2023-03-10T12:02:03.071Z,8.02
2023-03-10T12:04:31.722Z,8.30
2023-03-10T12:07:29.600Z,8.93
2023-03-10T12:10:12.428Z,8.75
2023-03-10T12:12:47.066Z,9.23
2023-03-10T12:15:36.834Z,9.63
2023-03-10T12:18:05.520Z,8.02
2023-03-10T12:20:33.851Z,9.40
2023-03-10T12:23:26.741Z,10.73
2023-03-10T12:25:53.382Z,11.43
2023-03-10T12:28:22.511Z,8.07
2023-03-10T12:31:10.591Z,9.00
2023-03-10T12:33:37.019Z,9.10
2023-03-10T12:36:21.971Z,9.45
2023-03-10T12:38:57.751Z,8.55
2023-03-10T12:41:27.421Z,9.18
2023-03-10T12:44:27.546Z,9.43
2023-03-10T12:47:09.072Z,7.03
2023-03-10T12:49:41.540Z,8.00
2023-03-10T12:52:20.603Z,9.70
2023-03-10T12:55:17.681Z,8.48
2023-03-10T12:58:04.753Z,7.57
2023-03-10T13:00:44.708Z,9.93
2023-03-10T13:03:35.318Z,9.23
2023-03-10T13:06:06.482Z,7.63
2023-03-10T13:08:44.744Z,8.40
2023-03-10T13:11:27.138Z,8.30
2023-03-10T13:14:01.831Z,7.83
2023-03-10T13:16:30.112Z,8.13
2023-03-10T13:18:56.726Z,8.45
2023-03-10T13:21:31.672Z,9.45
2023-03-10T13:24:03.484Z,9.85
2023-03-10T13:26:30.837Z,9.17
2023-03-10T13:29:00.748Z,10.02
2023-03-10T13:31:30.377Z,10.05
2023-03-10T13:33:57.700Z,8.95
2023-03-10T13:36:32.160Z,10.45
2023-03-10T13:39:04.568Z,9.17
2023-03-10T13:41:37.403Z,11.57
2023-03-10T13:44:04.272Z,9.95
2023-03-10T13:46:32.953Z,11.02
2023-03-10T13:49:06.480Z,9.13
2023-03-10T13:51:35.892Z,9.43
2023-03-10T13:54:28.288Z,6.53
2023-03-10T13:57:10.775Z,9.15
2023-03-10T13:59:37.814Z,8.68
2023-03-10T14:02:12.862Z,7.28
2023-03-10T14:04:45.359Z,7.17
2023-03-10T14:07:20.468Z,7.35
2023-03-10T14:10:08.735Z,9.15
2023-03-10T14:12:41.018Z,7.90
2023-03-10T14:15:20.675Z,8.20
2023-03-10T14:17:51.118Z,8.63
2023-03-10T14:20:36.293Z,7.72
2023-03-10T14:23:36.647Z,7.45
2023-03-10T14:26:08.566Z,10.05
2023-03-10T14:28:35.057Z,8.30
2023-03-10T14:31:06.722Z,8.20
2023-03-10T14:33:33.405Z,7.35
2023-03-10T14:36:00.019Z,8.00
2023-03-10T14:38:26.637Z,7.68
2023-03-10T14:40:54.717Z,7.95
2023-03-10T14:43:28.809Z,8.03
2023-03-10T14:45:58.654Z,10.55
2023-03-10T14:48:30.739Z,8.13
2023-03-10T14:50:57.315Z,8.65
2023-03-10T14:53:25.555Z,11.07
2023-03-10T14:55:55.115Z,10.73
2023-03-10T14:58:28.404Z,9.80
2023-03-10T15:00:55.007Z,10.00
2023-03-10T15:03:21.672Z,11.20
2023-03-10T15:05:49.286Z,12.90
2023-03-10T15:08:17.511Z,16.07
2023-03-10T15:10:50.575Z,11.63
2023-03-10T15:13:23.485Z,14.02
2023-03-10T15:15:50.699Z,14.88
2023-03-10T15:18:20.561Z,12.15
2023-03-10T15:20:48.259Z,12.10
2023-03-10T15:23:18.166Z,12.90
2023-03-10T15:25:46.341Z,14.18
2023-03-10T15:28:13.648Z,12.43
2023-03-10T15:30:40.168Z,9.70
2023-03-10T15:33:06.801Z,13.97
2023-03-10T15:35:33.454Z,13.27
2023-03-10T15:37:59.990Z,11.63
2023-03-10T15:40:29.870Z,14.25
2023-03-10T15:42:57.753Z,15.15
2023-03-10T15:45:30.674Z,18.20
2023-03-10T15:47:57.907Z,16.48
2023-03-10T15:50:24.795Z,12.82
2023-03-10T15:52:54.668Z,15.80
2023-03-10T15:55:21.761Z,19.02
2023-03-10T15:57:49.820Z,16.90
2023-03-10T16:00:18.155Z,13.77
2023-03-10T16:02:45.565Z,13.00
2023-03-10T16:05:12.541Z,11.18
2023-03-10T16:07:39.054Z,10.20
2023-03-10T16:10:06.034Z,7.80
2023-03-10T16:12:32.582Z,10.85
2023-03-10T16:14:59.244Z,7.93
2023-03-10T16:17:28.732Z,10.10
2023-03-10T16:19:55.540Z,9.85
2023-03-10T16:22:22.552Z,8.10
2023-03-10T16:24:49.381Z,8.45
2023-03-10T16:27:18.214Z,11.38
2023-03-10T16:29:45.165Z,10.18
2023-03-10T16:32:12.518Z,9.23
2023-03-10T16:34:39.016Z,7.50
2023-03-10T16:37:08.069Z,8.32
2023-03-10T16:39:35.246Z,6.40
2023-03-10T16:42:01.849Z,7.35
2023-03-10T16:44:28.363Z,9.52
2023-03-10T16:46:55.036Z,9.83
2023-03-10T16:49:21.908Z,9.55
2023-03-10T16:51:48.833Z,9.32
2023-03-10T16:54:18.000Z,17.20
2023-03-10T16:56:47.561Z,14.23
2023-03-10T16:59:18.292Z,9.57
2023-03-10T17:01:45.769Z,8.80
2023-03-10T17:04:12.619Z,12.80
2023-03-10T17:06:39.278Z,13.73
2023-03-10T17:09:07.642Z,10.70
2023-03-10T17:11:38.059Z,12.57
2023-03-10T17:14:07.534Z,11.00
2023-03-10T17:16:35.594Z,12.25
2023-03-10T17:19:05.388Z,10.15
2023-03-10T17:21:37.882Z,10.07
2023-03-10T17:24:06.020Z,11.53
2023-03-10T17:26:32.914Z,11.10
2023-03-10T17:28:59.480Z,10.15
2023-03-10T17:31:27.616Z,12.80
2023-03-10T17:34:00.377Z,14.00
2023-03-10T17:36:27.987Z,17.90
2023-03-10T17:38:59.675Z,13.30
2023-03-10T17:41:27.929Z,13.70
2023-03-10T17:43:54.842Z,11.05
2023-03-10T17:46:24.396Z,11.35
2023-03-10T17:48:52.843Z,14.47
2023-03-10T17:51:30.744Z,11.50
2023-03-10T17:53:59.627Z,13.75
2023-03-10T17:56:27.176Z,11.68
2023-03-10T17:58:54.814Z,8.65
2023-03-10T18:01:25.970Z,8.97
2023-03-10T18:03:53.173Z,9.82
2023-03-10T18:06:25.164Z,12.80
2023-03-10T18:08:53.710Z,8.20
2023-03-10T18:11:22.172Z,7.22
2023-03-10T18:13:49.021Z,10.10
2023-03-10T18:16:18.874Z,7.10
2023-03-10T18:18:46.133Z,7.40
2023-03-10T18:21:14.263Z,7.68
2023-03-10T18:23:41.114Z,9.48
2023-03-10T18:26:09.332Z,8.87
2023-03-10T18:29:32.257Z,8.20
2023-03-10T18:31:58.805Z,6.90
2023-03-10T18:34:25.452Z,6.13
2023-03-10T18:36:52.113Z,5.75
2023-03-10T18:39:18.628Z,7.70
2023-03-10T18:41:45.158Z,6.03
2023-03-10T18:44:11.821Z,6.38
2023-03-10T18:46:38.666Z,5.85
2023-03-10T18:49:05.620Z,5.22
2023-03-10T18:51:32.112Z,6.70
2023-03-10T18:53:58.675Z,4.05
2023-03-10T18:56:28.771Z,4.03
2023-03-10T18:58:55.294Z,3.78
2023-03-10T19:01:22.070Z,6.63
2023-03-10T19:03:48.593Z,11.47
2023-03-10T19:06:15.093Z,10.30
2023-03-10T19:08:41.621Z,9.95
2023-03-10T19:11:08.144Z,10.30
2023-03-10T19:13:35.236Z,11.65
2023-03-10T19:16:09.402Z,9.20
2023-03-10T19:18:36.019Z,3.72
2023-03-10T19:21:02.773Z,8.40
2023-03-10T19:23:29.337Z,6.78
2023-03-10T19:25:55.954Z,8.30
2023-03-10T19:28:22.493Z,13.47
2023-03-10T19:30:49.132Z,7.40
2023-03-10T19:33:15.625Z,4.13
2023-03-10T19:35:42.244Z,5.40
2023-03-10T19:38:08.805Z,9.73
2023-03-10T19:40:35.421Z,7.50
2023-03-10T19:43:02.515Z,8.95
2023-03-10T19:45:29.032Z,4.65
2023-03-10T19:47:57.849Z,7.30
2023-03-10T19:50:25.287Z,4.53
2023-03-10T19:52:52.216Z,4.23
2023-03-10T19:55:22.952Z,3.85
2023-03-10T19:57:51.968Z,6.53
2023-03-10T20:00:25.633Z,5.63
2023-03-10T20:02:54.035Z,4.20
2023-03-10T20:05:21.780Z,7.13
2023-03-10T20:07:48.828Z,4.03
2023-03-10T20:10:16.838Z,5.53
2023-03-10T20:12:43.701Z,13.63
2023-03-10T20:15:10.709Z,4.97
2023-03-10T20:17:37.455Z,5.57
2023-03-10T20:20:10.063Z,10.75
2023-03-10T20:22:40.973Z,4.65
2023-03-10T20:25:09.978Z,7.03
2023-03-10T20:27:37.604Z,7.40
2023-03-10T20:30:12.466Z,5.47
2023-03-10T20:32:39.014Z,7.82
2023-03-10T20:35:06.007Z,5.13
2023-03-10T20:37:33.727Z,5.20
2023-03-10T20:40:00.308Z,4.07
2023-03-10T20:42:27.360Z,5.27
2023-03-10T20:44:53.855Z,6.13
2023-03-10T20:47:20.391Z,10.60
2023-03-10T20:49:46.875Z,8.88
2023-03-10T20:52:13.381Z,5.97
2023-03-10T20:54:39.938Z,5.10
2023-03-10T20:57:06.484Z,4.32
2023-03-10T20:59:33.009Z,5.07
2023-03-10T21:01:59.540Z,6.65
2023-03-10T21:04:27.969Z,4.20
2023-03-10T21:06:54.557Z,6.13
2023-03-10T21:09:21.087Z,7.60
2023-03-10T21:11:47.601Z,5.22
2023-03-10T21:14:14.510Z,4.47
2023-03-10T21:16:42.010Z,6.00
2023-03-10T21:19:09.933Z,5.83
2023-03-10T21:21:36.602Z,6.55
2023-03-10T21:24:04.959Z,6.07
2023-03-10T21:26:31.977Z,7.15
2023-03-10T21:29:00.042Z,7.65
2023-03-10T21:31:26.922Z,4.97
2023-03-10T21:33:53.538Z,6.40
2023-03-10T21:36:22.986Z,8.13
2023-03-10T21:38:51.024Z,5.10
2023-03-10T21:41:26.849Z,4.95
2023-03-10T21:43:55.184Z,3.80
2023-03-10T21:46:22.151Z,5.28
2023-03-10T21:48:48.751Z,3.97
2023-03-10T21:51:17.888Z,4.88
2023-03-10T21:53:44.566Z,3.40
2023-03-10T21:56:11.594Z,5.83
2023-03-10T21:58:38.394Z,4.13
2023-03-10T22:01:06.208Z,9.50
2023-03-10T22:03:33.899Z,4.97
2023-03-10T22:06:01.568Z,13.90
2023-03-10T22:08:28.073Z,7.53
2023-03-10T22:10:54.658Z,7.00
2023-03-10T22:13:21.839Z,4.53
2023-03-10T22:15:48.450Z,4.38
2023-03-10T22:18:15.049Z,6.50
2023-03-10T22:20:41.517Z,4.53
2023-03-10T22:23:08.152Z,2.15
2023-03-10T22:25:34.753Z,5.90
2023-03-10T22:28:01.583Z,3.05
2023-03-10T22:30:29.463Z,4.53
2023-03-10T22:32:56.228Z,4.27
2023-03-10T22:35:23.135Z,3.67
2023-03-10T22:37:51.342Z,2.35
2023-03-10T22:40:20.714Z,3.28
2023-03-10T22:42:48.134Z,4.50
2023-03-10T22:45:27.467Z,6.67
2023-03-10T22:47:56.807Z,2.47
2023-03-10T22:50:29.738Z,3.20
2023-03-10T22:52:56.204Z,1.95
2023-03-10T22:55:24.778Z,4.07
2023-03-10T22:57:52.514Z,4.97
2023-03-10T23:00:21.972Z,2.75
2023-03-10T23:02:49.926Z,4.53
2023-03-10T23:05:17.154Z,4.82
2023-03-10T23:07:44.449Z,3.80
2023-03-10T23:10:18.218Z,2.40
2023-03-10T23:12:45.743Z,2.95
2023-03-10T23:15:24.835Z,5.65
2023-03-10T23:17:52.937Z,1.55
2023-03-10T23:20:19.605Z,3.05
2023-03-10T23:22:47.017Z,4.03
2023-03-10T23:25:20.099Z,4.20
2023-03-10T23:27:46.676Z,5.88
2023-03-10T23:30:17.052Z,3.08
2023-03-10T23:32:44.763Z,2.83
2023-03-10T23:35:13.150Z,2.33
2023-03-10T23:37:40.197Z,4.35
2023-03-10T23:40:10.633Z,2.50
2023-03-10T23:42:38.523Z,3.03
2023-03-10T23:45:08.029Z,3.33
2023-03-10T23:47:35.418Z,6.93
2023-03-10T23:50:03.592Z,8.18
2023-03-10T23:52:30.713Z,12.27
2023-03-10T23:54:57.236Z,3.22
2023-03-10T23:57:23.757Z,2.92
2023-03-10T23:59:50.335Z,2.50
